createdAt,value
2023-03-27T00:00:46.411Z,48.90
2023-03-27T00:03:51.134Z,48.60
2023-03-27T00:25:28.386Z,48.00
2023-03-27T00:47:13.887Z,49.30
2023-03-27T00:49:44.746Z,48.70
2023-03-27T00:52:13.913Z,49.40
2023-03-27T00:54:46.464Z,48.70
2023-03-27T00:57:21.520Z,49.10
2023-03-27T00:59:49.393Z,49.20
2023-03-27T01:02:19.448Z,49.10
2023-03-27T01:40:36.332Z,48.10
2023-03-27T01:43:34.245Z,48.40
2023-03-27T01:46:09.251Z,48.00
2023-03-27T02:19:01.656Z,47.90
2023-03-27T02:21:34.595Z,47.10
2023-03-27T02:24:12.928Z,46.50
2023-03-27T02:26:43.430Z,44.40
2023-03-27T02:51:25.661Z,50.00
2023-03-27T02:54:08.553Z,51.90
2023-03-27T02:56:41.401Z,58.50
2023-03-27T02:59:11.062Z,62.00
2023-03-27T03:01:38.554Z,64.60
2023-03-27T03:04:11.211Z,66.30
2023-03-27T03:06:42.587Z,66.40
2023-03-27T03:09:16.766Z,67.10
2023-03-27T03:11:52.440Z,68.20
2023-03-27T03:14:23.490Z,69.10
2023-03-27T03:16:54.248Z,70.20
2023-03-27T03:19:22.021Z,70.70
2023-03-27T03:21:49.851Z,70.70
2023-03-27T03:24:18.064Z,71.10
2023-03-27T03:26:45.882Z,70.40
2023-03-27T03:29:14.540Z,69.70
2023-03-27T03:31:44.946Z,70.30
2023-03-27T03:34:17.090Z,70.50
2023-03-27T03:36:49.588Z,71.10
2023-03-27T03:39:20.529Z,71.70
2023-03-27T03:41:48.104Z,71.40
2023-03-27T03:44:15.438Z,71.30
2023-03-27T03:46:42.862Z,70.90
2023-03-27T03:49:10.343Z,70.60
2023-03-27T03:51:38.116Z,70.10
2023-03-27T03:54:06.967Z,70.00
2023-03-27T03:56:35.012Z,69.90
2023-03-27T03:59:02.561Z,69.80
2023-03-27T04:01:30.213Z,69.40
2023-03-27T04:04:01.069Z,69.90
2023-03-27T04:06:31.141Z,69.80
2023-03-27T04:09:01.288Z,70.10
2023-03-27T04:11:29.077Z,70.40
2023-03-27T04:13:59.773Z,70.40
2023-03-27T04:16:27.361Z,70.60
2023-03-27T04:18:55.838Z,70.70
2023-03-27T04:21:26.944Z,70.70
2023-03-27T04:23:54.485Z,70.60
2023-03-27T04:26:28.573Z,70.60
2023-03-27T04:28:56.214Z,70.90
2023-03-27T04:31:23.815Z,71.00
2023-03-27T04:33:52.587Z,71.50
2023-03-27T04:36:21.061Z,71.80
2023-03-27T04:38:51.621Z,71.50
2023-03-27T04:41:19.307Z,70.60
2023-03-27T04:43:46.946Z,71.20
2023-03-27T04:46:14.605Z,71.80
2023-03-27T04:48:48.229Z,72.00
2023-03-27T04:51:16.396Z,72.10
2023-03-27T04:53:44.353Z,71.60
2023-03-27T04:56:15.107Z,71.50
2023-03-27T04:58:45.953Z,71.90
2023-03-27T05:01:15.686Z,71.80
2023-03-27T05:03:43.582Z,71.60
2023-03-27T05:06:12.907Z,71.90
2023-03-27T05:08:40.991Z,71.60
2023-03-27T05:11:08.980Z,71.80
2023-03-27T05:13:39.366Z,71.80
2023-03-27T05:16:09.466Z,71.30
2023-03-27T05:18:41.860Z,71.00
2023-03-27T05:21:13.148Z,71.20
2023-03-27T05:23:40.366Z,70.90
2023-03-27T05:26:07.951Z,70.60
2023-03-27T05:28:37.994Z,70.20
2023-03-27T05:31:10.913Z,70.40
2023-03-27T05:33:38.447Z,71.20
2023-03-27T05:36:10.495Z,71.90
2023-03-27T05:52:17.204Z,68.80
2023-03-27T05:54:44.835Z,68.80
2023-03-27T05:57:14.690Z,69.20
2023-03-27T05:59:44.137Z,69.50
2023-03-27T06:02:21.386Z,69.50
2023-03-27T06:05:26.746Z,68.80
2023-03-27T06:08:36.279Z,68.30
2023-03-27T06:11:16.414Z,68.30
2023-03-27T06:13:44.335Z,68.00
2023-03-27T06:21:37.205Z,67.70
2023-03-27T06:24:05.807Z,67.60
2023-03-27T06:26:33.135Z,67.20
2023-03-27T06:29:09.243Z,66.60
2023-03-27T06:42:38.725Z,67.00
2023-03-27T06:45:06.534Z,66.10
2023-03-27T06:47:44.473Z,66.00
2023-03-27T06:50:28.531Z,66.10
2023-03-27T07:24:57.940Z,59.90
2023-03-27T07:27:25.512Z,60.50
2023-03-27T07:29:54.349Z,60.20
2023-03-27T07:32:34.000Z,60.50
2023-03-27T07:35:09.966Z,61.30
2023-03-27T07:37:38.173Z,61.10
2023-03-27T07:40:09.082Z,61.30
2023-03-27T07:42:36.148Z,61.10
2023-03-27T07:45:04.567Z,61.70
2023-03-27T07:47:35.032Z,62.40
2023-03-27T07:50:03.227Z,63.20
2023-03-27T07:52:30.330Z,63.10
2023-03-27T07:54:57.424Z,63.40
2023-03-27T07:57:24.686Z,63.60
2023-03-27T07:59:52.926Z,61.20
2023-03-27T08:02:20.662Z,60.50
2023-03-27T08:04:47.892Z,60.10
2023-03-27T08:07:15.192Z,61.80
2023-03-27T08:09:42.341Z,63.20
2023-03-27T08:12:09.669Z,62.90
2023-03-27T08:14:36.791Z,64.00
2023-03-27T08:17:15.112Z,63.70
2023-03-27T08:19:45.669Z,62.60
2023-03-27T08:22:13.203Z,63.50
2023-03-27T08:24:40.640Z,64.20
2023-03-27T08:27:08.080Z,64.10
2023-03-27T08:29:35.257Z,64.10
2023-03-27T08:32:02.805Z,64.40
2023-03-27T08:34:30.995Z,64.60
2023-03-27T08:36:58.161Z,63.10
2023-03-27T08:39:31.062Z,63.80
2023-03-27T08:42:08.864Z,64.80
2023-03-27T08:44:36.424Z,63.30
2023-03-27T08:52:37.491Z,60.50
2023-03-27T08:55:19.047Z,59.90
2023-03-27T09:00:27.359Z,60.70
2023-03-27T09:03:00.577Z,60.20
2023-03-27T09:05:43.393Z,61.20
2023-03-27T09:08:46.549Z,62.90
2023-03-27T09:11:40.524Z,63.50
2023-03-27T09:14:39.003Z,64.40
2023-03-27T09:17:18.620Z,64.70
2023-03-27T09:19:52.967Z,64.20
2023-03-27T09:22:30.605Z,63.90
2023-03-27T09:25:01.427Z,63.40
2023-03-27T09:27:33.476Z,62.30
2023-03-27T09:30:12.040Z,62.50
2023-03-27T09:32:39.503Z,62.80
2023-03-27T09:35:11.083Z,61.60
2023-03-27T09:37:38.383Z,61.60
2023-03-27T09:40:08.827Z,62.30
2023-03-27T09:42:40.388Z,62.30
2023-03-27T09:45:09.281Z,61.40
2023-03-27T09:47:54.137Z,61.30
2023-03-27T09:50:52.302Z,61.40
2023-03-27T09:53:25.307Z,62.10
2023-03-27T09:56:01.060Z,60.40
2023-03-27T09:58:40.903Z,60.50
2023-03-27T10:01:21.597Z,60.80
2023-03-27T10:03:49.606Z,60.50
2023-03-27T10:06:31.224Z,61.10
2023-03-27T10:09:01.279Z,60.20
2023-03-27T10:11:32.857Z,60.00
2023-03-27T10:14:01.144Z,58.60
2023-03-27T10:16:28.263Z,59.30
2023-03-27T10:18:57.228Z,59.10
2023-03-27T10:21:34.089Z,57.40
2023-03-27T10:24:17.656Z,57.70
2023-03-27T10:26:44.879Z,56.70
2023-03-27T10:29:37.624Z,56.30
2023-03-27T10:32:06.920Z,56.80
2023-03-27T10:34:51.161Z,57.60
2023-03-27T10:37:26.774Z,58.40
2023-03-27T10:39:57.803Z,59.10
2023-03-27T10:42:26.915Z,59.10
2023-03-27T10:44:56.426Z,59.00
2023-03-27T10:47:25.443Z,59.20
2023-03-27T10:50:33.738Z,60.40
2023-03-27T10:53:15.249Z,60.50
2023-03-27T10:56:06.650Z,60.10
2023-03-27T10:58:49.562Z,59.30
2023-03-27T11:10:12.243Z,59.10
2023-03-27T11:18:17.787Z,58.60
2023-03-27T11:20:52.052Z,58.60
2023-03-27T11:23:29.126Z,57.70
2023-03-27T11:26:02.003Z,58.50
2023-03-27T11:31:53.875Z,56.80
2023-03-27T11:35:03.567Z,56.60
2023-03-27T11:37:41.855Z,57.80
2023-03-27T11:40:20.516Z,58.10
2023-03-27T11:42:47.763Z,59.20
2023-03-27T11:45:38.446Z,59.00
2023-03-27T11:48:11.621Z,59.20
2023-03-27T11:51:03.173Z,60.10
2023-03-27T11:54:05.972Z,60.00
2023-03-27T11:56:50.526Z,60.00
2023-03-27T12:02:59.000Z,60.70
2023-03-27T12:06:11.830Z,60.20
2023-03-27T12:08:50.238Z,60.70
2023-03-27T12:11:25.986Z,60.20
2023-03-27T12:14:13.972Z,60.10
2023-03-27T12:17:03.689Z,60.60
2023-03-27T12:19:55.908Z,60.60
2023-03-27T12:22:49.681Z,61.20
2023-03-27T12:25:38.370Z,60.70
2023-03-27T12:28:26.716Z,60.60
2023-03-27T12:30:59.639Z,60.60
2023-03-27T12:33:32.224Z,60.60
2023-03-27T12:36:01.809Z,60.80
2023-03-27T12:38:37.521Z,60.10
2023-03-27T12:41:37.864Z,60.00
2023-03-27T12:44:05.346Z,59.10
2023-03-27T12:46:35.326Z,59.50
2023-03-27T12:49:08.464Z,58.40
2023-03-27T12:52:32.204Z,57.10
2023-03-27T12:55:29.886Z,55.90
2023-03-27T12:57:57.393Z,57.80
2023-03-27T13:00:25.886Z,58.70
2023-03-27T13:03:14.440Z,58.90
2023-03-27T13:06:07.269Z,58.90
2023-03-27T13:08:41.413Z,58.80
2023-03-27T13:12:06.548Z,59.50
2023-03-27T13:15:24.175Z,60.70
2023-03-27T13:29:03.474Z,60.30
2023-03-27T13:31:51.908Z,60.70
2023-03-27T13:54:40.517Z,58.00
2023-03-27T13:57:39.959Z,58.60
2023-03-27T14:00:29.958Z,58.20
2023-03-27T14:03:19.321Z,55.60
2023-03-27T14:06:42.575Z,55.80
2023-03-27T14:09:41.287Z,55.60
2023-03-27T14:12:11.412Z,56.20
2023-03-27T14:15:12.038Z,57.20
2023-03-27T14:17:48.205Z,57.60
2023-03-27T14:20:25.490Z,57.80
2023-03-27T14:22:57.597Z,56.60
2023-03-27T14:25:38.565Z,57.10
2023-03-27T14:28:09.196Z,58.70
2023-03-27T14:30:44.917Z,59.80
2023-03-27T14:33:18.086Z,59.10
2023-03-27T14:35:45.545Z,58.10
2023-03-27T14:38:37.778Z,58.10
2023-03-27T14:41:06.648Z,57.10
2023-03-27T14:43:34.362Z,56.40
2023-03-27T14:46:06.734Z,55.80
2023-03-27T14:48:37.465Z,55.70
2023-03-27T14:51:14.615Z,55.90
2023-03-27T14:53:48.131Z,56.40
2023-03-27T14:56:47.934Z,56.30
2023-03-27T14:59:36.479Z,56.80
2023-03-27T15:02:18.646Z,56.90
2023-03-27T15:04:50.975Z,57.30
2023-03-27T15:10:54.155Z,53.80
2023-03-27T15:16:07.161Z,53.70
2023-03-27T16:26:20.695Z,57.00
2023-03-27T16:29:06.452Z,54.20
2023-03-27T16:31:45.232Z,54.70
2023-03-27T16:34:22.911Z,54.40
2023-03-27T16:47:53.065Z,57.20
2023-03-27T16:57:03.930Z,57.30
2023-03-27T16:59:31.344Z,56.10
2023-03-27T17:01:59.154Z,56.60
2023-03-27T17:04:38.758Z,56.60
2023-03-27T17:07:07.035Z,57.10
2023-03-27T17:20:27.061Z,56.50
2023-03-27T17:22:56.174Z,55.70
2023-03-27T17:25:26.104Z,54.40
2023-03-27T17:27:55.390Z,53.90
2023-03-27T17:30:36.787Z,55.30
2023-03-27T17:33:07.768Z,55.10
2023-03-27T17:35:44.834Z,55.00
2023-03-27T18:30:45.190Z,50.60
2023-03-27T18:33:23.220Z,50.80
2023-03-27T18:35:56.332Z,51.30
2023-03-27T18:38:52.918Z,51.40
2023-03-27T18:41:20.643Z,51.20
2023-03-27T18:43:56.904Z,51.40
2023-03-27T18:46:27.005Z,52.00
2023-03-27T18:48:55.249Z,51.10
2023-03-27T18:51:30.520Z,51.70
2023-03-27T18:53:58.669Z,51.40
2023-03-27T18:56:37.300Z,51.30
2023-03-27T18:59:14.742Z,52.10
2023-03-27T19:01:44.809Z,52.20
2023-03-27T19:04:44.680Z,51.50
2023-03-27T19:07:23.967Z,51.90
2023-03-27T19:10:10.258Z,51.80
2023-03-27T19:12:45.391Z,50.60
2023-03-27T19:15:20.271Z,49.60
2023-03-27T19:18:06.177Z,50.60
2023-03-27T19:20:36.370Z,49.50
2023-03-27T19:23:08.236Z,49.20
2023-03-27T19:25:36.394Z,48.30
2023-03-27T19:28:10.720Z,47.90
2023-03-27T19:30:42.177Z,47.70
2023-03-27T19:33:12.480Z,47.40
2023-03-27T19:36:03.919Z,48.00
2023-03-27T19:44:01.109Z,47.70
2023-03-27T19:49:58.549Z,46.80
2023-03-27T19:52:27.756Z,46.60
2023-03-27T19:55:08.713Z,47.20
2023-03-27T20:00:31.529Z,46.40
2023-03-27T20:02:59.949Z,46.50
2023-03-27T20:08:21.149Z,45.60
2023-03-27T20:32:49.265Z,44.00
2023-03-27T20:35:27.498Z,43.80
2023-03-27T20:37:58.403Z,43.80
2023-03-27T20:40:53.016Z,43.60
2023-03-27T20:43:23.496Z,43.30
2023-03-27T20:46:00.714Z,44.00
2023-03-27T20:48:42.178Z,43.90
2023-03-27T20:51:57.124Z,44.50
2023-03-27T20:54:30.009Z,44.40
2023-03-27T20:56:58.630Z,44.20
2023-03-27T20:59:26.405Z,42.60
2023-03-27T21:02:07.374Z,43.00
2023-03-27T21:04:38.123Z,42.80
2023-03-27T21:07:34.358Z,42.30
2023-03-27T21:10:09.778Z,41.70
2023-03-27T21:20:57.084Z,41.90
2023-03-27T21:23:55.167Z,41.80
2023-03-27T21:26:28.838Z,42.70
2023-03-27T21:49:00.274Z,40.70
2023-03-27T22:02:17.689Z,41.10
2023-03-27T22:15:35.230Z,40.40
2023-03-27T22:18:12.729Z,40.70
2023-03-27T22:26:08.628Z,39.50
2023-03-27T22:34:08.242Z,40.10
2023-03-27T22:36:48.712Z,40.00
2023-03-27T22:52:54.065Z,38.90
2023-03-27T23:14:30.194Z,38.80
2023-03-27T23:19:39.862Z,40.20
2023-03-27T23:33:00.476Z,40.00
2023-03-27T23:38:17.510Z,40.80
2023-03-27T23:40:46.996Z,40.90
2023-03-27T23:43:25.025Z,40.20
2023-03-27T23:45:53.927Z,39.90
2023-03-27T23:51:06.651Z,40.30
